createdAt,value
2018-05-09T00:01:58.393Z,16.40
2018-05-09T00:04:27.471Z,16.40
2018-05-09T00:06:56.469Z,16.40
2018-05-09T00:09:25.330Z,16.30
2018-05-09T00:11:54.394Z,16.30
2018-05-09T00:14:27.500Z,16.20
2018-05-09T00:16:55.600Z,16.20
2018-05-09T00:19:23.688Z,16.20
2018-05-09T00:21:52.261Z,16.10
2018-05-09T00:24:23.485Z,16.00
2018-05-09T00:26:52.352Z,15.90
2018-05-09T00:29:22.442Z,15.90
2018-05-09T00:31:54.223Z,15.90
2018-05-09T00:34:22.315Z,15.80
2018-05-09T00:36:51.181Z,15.70
2018-05-09T00:39:20.029Z,15.60
2018-05-09T00:41:48.138Z,15.60
2018-05-09T00:44:16.285Z,15.60
2018-05-09T00:46:52.518Z,15.60
2018-05-09T00:49:21.367Z,15.50
2018-05-09T00:51:58.404Z,15.40
2018-05-09T00:54:33.214Z,15.40
2018-05-09T00:57:04.547Z,15.40
2018-05-09T00:59:32.627Z,15.30
2018-05-09T01:02:00.708Z,15.30
2018-05-09T01:04:28.798Z,15.30
2018-05-09T01:06:56.915Z,15.30
2018-05-09T01:09:26.894Z,15.20
2018-05-09T01:11:56.725Z,15.40
2018-05-09T01:14:24.820Z,15.30
2018-05-09T01:16:52.914Z,15.30
2018-05-09T01:19:21.989Z,15.20
2018-05-09T01:21:51.845Z,15.10
2018-05-09T01:24:19.951Z,15.10
2018-05-09T01:26:49.011Z,15.10
2018-05-09T01:29:17.091Z,15.00
2018-05-09T01:31:45.960Z,15.00
2018-05-09T01:34:14.037Z,15.00
2018-05-09T01:36:47.911Z,15.00
2018-05-09T01:39:15.998Z,14.90
2018-05-09T01:41:44.083Z,15.00
2018-05-09T01:44:12.940Z,14.90
2018-05-09T01:46:41.034Z,14.90
2018-05-09T01:49:09.132Z,14.90
2018-05-09T01:51:38.156Z,14.90
2018-05-09T01:54:06.249Z,14.90
2018-05-09T01:56:35.228Z,14.90
2018-05-09T01:59:03.317Z,14.80
2018-05-09T02:01:35.913Z,14.80
2018-05-09T02:04:04.019Z,14.70
2018-05-09T02:06:32.070Z,14.70
2018-05-09T02:09:00.150Z,14.70
2018-05-09T02:11:32.546Z,14.70
2018-05-09T02:14:00.824Z,14.60
2018-05-09T02:16:28.920Z,14.60
2018-05-09T02:18:59.964Z,14.60
2018-05-09T02:21:29.797Z,14.50
2018-05-09T02:24:01.036Z,14.50
2018-05-09T02:26:29.030Z,14.50
2018-05-09T02:28:57.119Z,14.40
2018-05-09T02:31:25.811Z,14.40
2018-05-09T02:33:55.854Z,14.40
2018-05-09T02:36:23.940Z,14.40
2018-05-09T02:38:56.922Z,14.40
2018-05-09T02:41:26.968Z,14.30
2018-05-09T02:44:00.847Z,14.20
2018-05-09T02:46:28.942Z,14.20
2018-05-09T02:48:57.780Z,14.10
2018-05-09T02:51:31.952Z,14.10
2018-05-09T02:54:00.041Z,14.00
2018-05-09T02:56:30.142Z,14.00
2018-05-09T02:59:13.276Z,14.00
2018-05-09T03:01:49.488Z,14.00
2018-05-09T03:04:22.925Z,14.00
2018-05-09T03:06:51.003Z,14.00
2018-05-09T03:09:22.054Z,14.10
2018-05-09T03:12:00.675Z,14.10
2018-05-09T03:14:28.771Z,14.10
2018-05-09T03:16:57.622Z,14.00
2018-05-09T03:19:26.682Z,14.00
2018-05-09T03:22:01.144Z,14.00
2018-05-09T03:24:31.165Z,13.90
2018-05-09T03:26:59.279Z,13.90
2018-05-09T03:29:27.356Z,14.00
2018-05-09T03:31:55.449Z,14.00
2018-05-09T03:34:23.536Z,14.00
2018-05-09T03:36:51.686Z,14.00
2018-05-09T03:39:27.936Z,14.10
2018-05-09T03:41:58.697Z,14.00
2018-05-09T03:44:28.734Z,14.00
2018-05-09T03:46:56.836Z,14.00
2018-05-09T03:49:24.938Z,14.00
2018-05-09T03:52:12.614Z,14.00
2018-05-09T03:54:40.708Z,14.00
2018-05-09T03:57:09.589Z,14.10
2018-05-09T03:59:37.715Z,14.10
2018-05-09T04:02:22.844Z,14.10
2018-05-09T04:05:04.458Z,14.10
2018-05-09T04:07:47.598Z,14.10
2018-05-09T04:10:16.643Z,14.10
2018-05-09T04:12:44.726Z,14.20
2018-05-09T04:15:12.801Z,14.30
2018-05-09T04:17:40.873Z,14.30
2018-05-09T04:20:19.622Z,14.30
2018-05-09T04:22:47.728Z,14.40
2018-05-09T04:25:34.386Z,14.60
2018-05-09T04:28:02.571Z,15.80
2018-05-09T04:30:35.918Z,17.50
2018-05-09T04:33:04.016Z,19.10
2018-05-09T04:35:32.099Z,20.30
2018-05-09T04:38:03.659Z,20.40
2018-05-09T04:40:32.695Z,20.60
2018-05-09T04:43:01.780Z,20.90
2018-05-09T04:45:29.867Z,21.20
2018-05-09T04:47:58.002Z,21.60
2018-05-09T04:50:26.080Z,21.90
2018-05-09T04:52:54.179Z,22.10
2018-05-09T04:55:23.088Z,19.50
2018-05-09T04:57:51.137Z,19.50
2018-05-09T05:00:24.121Z,18.70
2018-05-09T05:02:58.827Z,18.10
2018-05-09T05:05:26.942Z,17.80
2018-05-09T05:07:56.816Z,17.20
2018-05-09T05:10:26.305Z,17.10
2018-05-09T05:12:54.528Z,17.10
2018-05-09T05:15:37.192Z,16.90
2018-05-09T05:18:05.298Z,16.80
2018-05-09T05:20:33.396Z,16.80
2018-05-09T05:23:07.707Z,16.70
2018-05-09T05:25:35.860Z,16.60
2018-05-09T05:28:04.067Z,16.60
2018-05-09T05:30:37.043Z,16.60
2018-05-09T05:33:05.780Z,16.60
2018-05-09T05:35:33.862Z,16.60
2018-05-09T05:38:07.636Z,16.60
2018-05-09T05:40:35.725Z,16.60
2018-05-09T05:43:03.824Z,16.60
2018-05-09T05:45:32.706Z,16.60
2018-05-09T05:48:00.824Z,16.60
2018-05-09T05:50:29.903Z,16.60
2018-05-09T05:53:08.927Z,16.70
2018-05-09T05:55:37.047Z,16.60
2018-05-09T05:58:05.158Z,16.70
2018-05-09T06:00:33.246Z,16.80
2018-05-09T06:03:01.345Z,16.80
2018-05-09T06:05:34.722Z,16.90
2018-05-09T06:08:02.840Z,16.90
2018-05-09T06:10:30.885Z,17.00
2018-05-09T06:13:00.953Z,17.10
2018-05-09T06:15:29.035Z,17.10
2018-05-09T06:18:05.349Z,17.10
2018-05-09T06:20:34.357Z,17.20
2018-05-09T06:23:02.771Z,17.30
2018-05-09T06:25:31.846Z,17.30
2018-05-09T06:27:59.946Z,17.40
2018-05-09T06:30:28.032Z,17.50
2018-05-09T06:32:56.145Z,17.50
2018-05-09T06:35:24.263Z,17.60
2018-05-09T06:37:53.134Z,17.70
2018-05-09T06:40:21.222Z,17.70
2018-05-09T06:42:55.104Z,17.70
2018-05-09T06:45:23.773Z,17.80
2018-05-09T06:47:52.624Z,18.00
2018-05-09T06:50:20.744Z,18.00
2018-05-09T06:52:48.841Z,18.00
2018-05-09T06:55:16.965Z,18.10
2018-05-09T06:57:50.993Z,18.10
2018-05-09T07:00:20.085Z,18.20
2018-05-09T07:02:48.223Z,18.30
2018-05-09T07:05:16.364Z,18.40
2018-05-09T07:07:44.518Z,18.40
2018-05-09T07:10:17.532Z,18.50
2018-05-09T07:12:49.198Z,18.50
2018-05-09T07:15:20.585Z,18.60
2018-05-09T07:17:48.727Z,18.60
2018-05-09T07:20:17.607Z,18.80
2018-05-09T07:22:49.063Z,18.80
2018-05-09T07:25:17.158Z,18.90
2018-05-09T07:27:45.704Z,18.90
2018-05-09T07:30:13.962Z,19.00
2018-05-09T07:32:42.045Z,19.00
2018-05-09T07:35:10.161Z,19.10
2018-05-09T07:37:38.365Z,19.20
2018-05-09T07:40:07.310Z,19.40
2018-05-09T07:42:37.158Z,19.40
2018-05-09T07:45:05.307Z,19.40
2018-05-09T07:47:35.404Z,19.50
2018-05-09T07:50:03.470Z,19.60
2018-05-09T07:52:35.636Z,19.60
2018-05-09T07:55:03.741Z,19.70
2018-05-09T07:57:31.860Z,19.80
2018-05-09T08:00:00.969Z,19.80
2018-05-09T08:02:29.373Z,19.90
2018-05-09T08:04:57.534Z,20.00
2018-05-09T08:07:25.610Z,20.10
2018-05-09T08:09:55.734Z,20.20
2018-05-09T08:12:28.525Z,20.20
2018-05-09T08:15:07.272Z,20.30
2018-05-09T08:17:40.531Z,20.40
2018-05-09T08:20:09.368Z,20.50
2018-05-09T08:22:37.442Z,20.50
2018-05-09T08:25:06.557Z,20.60
2018-05-09T08:27:36.080Z,20.60
2018-05-09T08:30:04.422Z,20.70
2018-05-09T08:32:35.192Z,20.80
2018-05-09T08:35:03.323Z,20.90
2018-05-09T08:37:35.123Z,20.90
2018-05-09T08:40:05.191Z,21.10
2018-05-09T08:42:33.282Z,21.10
2018-05-09T08:45:03.278Z,21.20
2018-05-09T08:47:31.384Z,21.20
2018-05-09T08:49:59.527Z,21.20
2018-05-09T08:52:27.650Z,21.30
2018-05-09T08:54:55.754Z,21.40
2018-05-09T08:57:28.370Z,21.50
2018-05-09T09:00:02.338Z,21.50
2018-05-09T09:02:30.425Z,21.50
2018-05-09T09:04:58.549Z,21.70
2018-05-09T09:07:27.328Z,21.70
2018-05-09T09:09:56.049Z,21.80
2018-05-09T09:12:26.402Z,21.80
2018-05-09T09:14:57.615Z,21.90
2018-05-09T09:17:25.719Z,22.00
2018-05-09T09:19:53.816Z,22.00
2018-05-09T09:22:31.093Z,22.00
2018-05-09T09:25:00.508Z,22.10
2018-05-09T09:27:28.613Z,22.10
2018-05-09T09:29:56.752Z,22.20
2018-05-09T09:32:24.837Z,22.30
2018-05-09T09:34:52.959Z,22.40
2018-05-09T09:37:21.336Z,22.40
2018-05-09T09:39:49.407Z,22.40
2018-05-09T09:42:17.846Z,22.50
2018-05-09T09:44:45.992Z,22.60
2018-05-09T09:47:14.093Z,22.70
2018-05-09T09:49:53.904Z,22.80
2018-05-09T09:52:22.000Z,22.80
2018-05-09T09:55:01.924Z,22.90
2018-05-09T09:57:30.007Z,23.00
2018-05-09T09:59:58.917Z,23.10
2018-05-09T10:02:28.765Z,23.10
2018-05-09T10:05:01.232Z,23.10
2018-05-09T10:07:29.327Z,23.20
2018-05-09T10:09:58.196Z,23.40
2018-05-09T10:12:26.282Z,23.30
2018-05-09T10:14:54.446Z,23.40
2018-05-09T10:17:22.534Z,23.50
2018-05-09T10:19:50.975Z,23.60
2018-05-09T10:22:19.458Z,23.60
2018-05-09T10:24:47.558Z,23.70
2018-05-09T10:27:16.664Z,23.80
2018-05-09T10:29:46.875Z,23.80
2018-05-09T10:32:14.970Z,23.80
2018-05-09T10:34:43.099Z,23.90
2018-05-09T10:37:15.498Z,23.90
2018-05-09T10:39:44.958Z,24.00
2018-05-09T10:42:13.042Z,24.10
2018-05-09T10:44:41.205Z,24.20
2018-05-09T10:47:10.335Z,24.20
2018-05-09T10:49:39.590Z,24.20
2018-05-09T10:52:09.849Z,24.30
2018-05-09T10:54:37.939Z,24.30
2018-05-09T10:57:11.961Z,24.40
2018-05-09T10:59:40.000Z,24.50
2018-05-09T11:02:08.238Z,24.50
2018-05-09T11:04:41.649Z,24.60
2018-05-09T11:07:09.868Z,24.60
2018-05-09T11:09:37.940Z,24.60
2018-05-09T11:12:07.933Z,24.70
2018-05-09T11:14:36.030Z,24.70
2018-05-09T11:17:05.343Z,24.80
2018-05-09T11:19:33.405Z,24.90
2018-05-09T11:22:02.502Z,24.90
2018-05-09T11:24:30.613Z,25.00
2018-05-09T11:27:04.415Z,25.00
2018-05-09T11:29:32.525Z,25.10
2018-05-09T11:32:01.157Z,25.20
2018-05-09T11:34:29.273Z,25.20
2018-05-09T11:37:01.212Z,25.20
2018-05-09T11:39:29.366Z,25.20
2018-05-09T11:41:58.302Z,25.20
2018-05-09T11:44:27.901Z,25.20
2018-05-09T11:46:56.849Z,25.30
2018-05-09T11:49:25.030Z,25.30
2018-05-09T11:51:54.691Z,25.50
2018-05-09T11:54:22.819Z,25.50
2018-05-09T11:56:50.906Z,25.60
2018-05-09T11:59:19.662Z,25.60
2018-05-09T12:01:51.527Z,25.60
2018-05-09T12:04:24.266Z,25.70
2018-05-09T12:06:52.443Z,25.70
2018-05-09T12:09:25.070Z,25.70
2018-05-09T12:11:54.940Z,25.70
2018-05-09T12:14:23.036Z,25.70
2018-05-09T12:16:51.909Z,25.80
2018-05-09T12:19:21.017Z,25.80
2018-05-09T12:21:49.109Z,25.80
2018-05-09T12:24:17.214Z,25.90
2018-05-09T12:26:46.106Z,25.90
2018-05-09T12:29:19.902Z,26.00
2018-05-09T12:31:48.068Z,25.90
2018-05-09T12:34:17.161Z,26.00
2018-05-09T12:36:48.131Z,26.00
2018-05-09T12:39:35.437Z,26.10
2018-05-09T12:42:03.601Z,26.20
2018-05-09T12:44:31.695Z,26.30
2018-05-09T12:47:00.573Z,26.30
2018-05-09T12:49:28.743Z,26.30
2018-05-09T12:51:56.822Z,26.20
2018-05-09T12:54:30.120Z,26.20
2018-05-09T12:56:58.140Z,26.30
2018-05-09T12:59:27.066Z,26.50
2018-05-09T13:01:55.176Z,26.50
2018-05-09T13:04:24.306Z,26.60
2018-05-09T13:06:52.466Z,26.60
2018-05-09T13:09:32.992Z,26.60
2018-05-09T13:12:01.860Z,26.60
2018-05-09T13:14:29.980Z,26.50
2018-05-09T13:17:05.311Z,26.70
2018-05-09T13:19:49.326Z,26.70
2018-05-09T13:22:17.332Z,26.80
2018-05-09T13:24:48.757Z,26.80
2018-05-09T13:27:31.844Z,26.80
2018-05-09T13:30:00.645Z,26.70
2018-05-09T13:32:29.728Z,26.70
2018-05-09T13:34:57.817Z,26.80
2018-05-09T13:37:25.925Z,26.80
2018-05-09T13:39:55.094Z,26.80
2018-05-09T13:42:25.788Z,26.90
2018-05-09T13:44:53.955Z,26.90
2018-05-09T13:47:22.073Z,26.90
2018-05-09T13:49:51.223Z,26.90
2018-05-09T13:52:21.850Z,26.90
2018-05-09T13:54:53.470Z,26.90
2018-05-09T13:57:21.630Z,26.90
2018-05-09T13:59:50.444Z,26.90
2018-05-09T14:02:20.637Z,26.80
2018-05-09T14:04:49.356Z,26.80
2018-05-09T14:07:17.458Z,26.80
2018-05-09T14:09:46.657Z,26.90
2018-05-09T14:12:14.749Z,26.90
2018-05-09T14:14:43.505Z,26.90
2018-05-09T14:17:12.365Z,26.90
2018-05-09T14:19:40.474Z,26.80
2018-05-09T14:22:09.380Z,27.30
2018-05-09T14:24:39.836Z,27.20
2018-05-09T14:27:21.457Z,27.40
2018-05-09T14:29:49.527Z,27.40
2018-05-09T14:32:17.757Z,27.40
2018-05-09T14:34:47.563Z,27.30
2018-05-09T14:37:21.190Z,27.40
2018-05-09T14:39:55.061Z,27.40
2018-05-09T14:42:23.369Z,27.40
2018-05-09T14:44:51.442Z,27.50
2018-05-09T14:47:19.556Z,27.50
2018-05-09T14:49:48.099Z,27.40
2018-05-09T14:52:17.173Z,27.30
2018-05-09T14:54:45.241Z,27.30
2018-05-09T14:57:13.405Z,27.40
2018-05-09T14:59:43.209Z,27.30
2018-05-09T15:02:12.344Z,27.30
2018-05-09T15:04:41.344Z,27.30
2018-05-09T15:07:13.588Z,27.30
2018-05-09T15:09:41.768Z,27.30
2018-05-09T15:12:10.822Z,27.30
2018-05-09T15:14:38.924Z,27.40
2018-05-09T15:17:07.035Z,27.50
2018-05-09T15:19:35.297Z,27.70
2018-05-09T15:22:03.320Z,27.70
2018-05-09T15:24:32.186Z,27.70
2018-05-09T15:27:13.409Z,27.70
2018-05-09T15:29:41.493Z,27.70
2018-05-09T15:32:09.650Z,27.70
2018-05-09T15:34:37.792Z,27.70
2018-05-09T15:37:08.684Z,27.70
2018-05-09T15:39:36.812Z,27.60
2018-05-09T15:42:05.749Z,27.50
2018-05-09T15:44:34.935Z,27.50
2018-05-09T15:47:03.024Z,27.40
2018-05-09T15:49:31.128Z,27.40
2018-05-09T15:51:59.228Z,27.50
2018-05-09T15:54:27.390Z,27.50
2018-05-09T15:56:55.473Z,27.60
2018-05-09T15:59:26.298Z,27.70
2018-05-09T16:01:55.228Z,27.70
2018-05-09T16:04:23.351Z,27.70
2018-05-09T16:06:51.464Z,27.70
2018-05-09T16:09:25.330Z,27.70
2018-05-09T16:11:53.419Z,27.70
2018-05-09T16:14:21.523Z,27.70
2018-05-09T16:16:50.588Z,27.70
2018-05-09T16:19:18.797Z,27.80
2018-05-09T16:21:46.893Z,28.00
2018-05-09T16:24:15.009Z,28.10
2018-05-09T16:26:43.901Z,28.30
2018-05-09T16:29:12.015Z,28.30
2018-05-09T16:31:41.027Z,28.20
2018-05-09T16:34:10.009Z,28.20
2018-05-09T16:36:38.109Z,28.10
2018-05-09T16:39:06.221Z,28.00
2018-05-09T16:41:34.888Z,27.90
2018-05-09T16:44:03.043Z,28.00
2018-05-09T16:46:31.137Z,27.80
2018-05-09T16:48:59.275Z,27.60
2018-05-09T16:51:27.392Z,27.70
2018-05-09T16:53:55.513Z,27.70
2018-05-09T16:56:29.437Z,27.80
2018-05-09T16:58:59.699Z,27.90
2018-05-09T17:01:28.733Z,28.00
2018-05-09T17:03:56.832Z,28.00
2018-05-09T17:06:24.945Z,28.00
2018-05-09T17:08:53.028Z,28.00
2018-05-09T17:11:22.131Z,28.10
2018-05-09T17:13:51.198Z,28.10
2018-05-09T17:16:20.073Z,28.10
2018-05-09T17:18:50.189Z,28.00
2018-05-09T17:21:34.192Z,28.10
2018-05-09T17:24:03.303Z,28.10
2018-05-09T17:26:31.652Z,28.10
2018-05-09T17:29:04.106Z,28.10
2018-05-09T17:31:35.365Z,28.10
2018-05-09T17:34:04.415Z,28.00
2018-05-09T17:36:32.596Z,28.00
2018-05-09T17:39:00.649Z,27.80
2018-05-09T17:41:29.723Z,27.60
2018-05-09T17:44:04.911Z,27.40
2018-05-09T17:46:38.175Z,27.20
2018-05-09T17:49:06.366Z,27.10
2018-05-09T17:51:38.699Z,26.90
2018-05-09T17:54:06.837Z,26.80
2018-05-09T17:56:35.159Z,26.70
2018-05-09T17:59:03.264Z,26.60
2018-05-09T18:01:35.279Z,26.50
2018-05-09T18:04:03.488Z,26.50
2018-05-09T18:06:31.556Z,26.60
2018-05-09T18:08:59.653Z,26.70
2018-05-09T18:11:27.736Z,26.60
2018-05-09T18:13:56.802Z,26.50
2018-05-09T18:16:36.373Z,26.40
2018-05-09T18:19:05.481Z,26.40
2018-05-09T18:21:33.608Z,26.30
2018-05-09T18:24:02.347Z,26.20
2018-05-09T18:26:32.337Z,26.10
2018-05-09T18:29:05.243Z,26.00
2018-05-09T18:31:35.299Z,25.90
2018-05-09T18:34:04.405Z,25.70
2018-05-09T18:36:32.491Z,25.50
2018-05-09T18:39:06.506Z,25.30
2018-05-09T18:41:38.237Z,25.20
2018-05-09T18:44:12.950Z,25.00
2018-05-09T18:46:41.899Z,24.80
2018-05-09T18:49:10.018Z,24.70
2018-05-09T18:51:38.108Z,24.60
2018-05-09T18:54:06.331Z,24.50
2018-05-09T18:56:45.932Z,24.30
2018-05-09T18:59:14.039Z,24.30
2018-05-09T19:01:43.161Z,24.10
2018-05-09T19:04:11.250Z,24.10
2018-05-09T19:06:50.398Z,24.10
2018-05-09T19:09:20.508Z,24.00
2018-05-09T19:11:53.100Z,23.90
2018-05-09T19:14:42.791Z,23.90
2018-05-09T19:17:14.431Z,23.80
2018-05-09T19:19:46.477Z,23.70
2018-05-09T19:22:19.078Z,23.50
2018-05-09T19:24:49.145Z,23.50
2018-05-09T19:30:11.892Z,23.40
2018-05-09T19:32:39.984Z,23.30
2018-05-09T19:35:08.615Z,23.30
2018-05-09T19:37:40.656Z,23.30
2018-05-09T19:40:08.805Z,23.20
2018-05-09T19:42:37.661Z,23.20
2018-05-09T19:45:06.747Z,23.10
2018-05-09T19:47:35.662Z,23.10
2018-05-09T19:50:04.781Z,23.10
2018-05-09T19:52:42.466Z,23.00
2018-05-09T19:55:41.058Z,22.90
2018-05-09T19:58:20.445Z,22.90
2018-05-09T21:30:50.809Z,20.60
2018-05-09T21:33:25.982Z,20.60
2018-05-09T21:36:00.187Z,20.50
2018-05-09T21:38:28.403Z,20.50
2018-05-09T21:40:56.543Z,20.50
2018-05-09T21:43:31.316Z,20.40
2018-05-09T21:46:05.662Z,20.20
2018-05-09T21:48:36.734Z,20.20
2018-05-09T21:51:05.824Z,20.10
2018-05-09T21:53:34.838Z,20.00
2018-05-09T21:56:04.684Z,20.00
2018-05-09T21:58:32.848Z,20.00
2018-05-09T22:01:12.681Z,20.00
2018-05-09T22:03:45.304Z,19.80
2018-05-09T22:06:13.371Z,19.80
2018-05-09T22:08:43.192Z,19.70
2018-05-09T22:11:11.310Z,19.70
2018-05-09T22:13:39.402Z,19.70
2018-05-09T22:16:09.390Z,19.70
2018-05-09T22:18:47.320Z,19.70
2018-05-09T22:21:16.464Z,19.60
2018-05-09T22:23:48.003Z,19.60
2018-05-09T22:26:16.091Z,19.50
2018-05-09T22:28:46.126Z,19.50
2018-05-09T22:31:15.291Z,19.40
2018-05-09T22:33:43.385Z,19.40
2018-05-09T22:36:12.407Z,19.40
2018-05-09T22:38:42.417Z,19.40
2018-05-09T22:41:10.503Z,19.40
2018-05-09T22:43:40.561Z,19.30
2018-05-09T22:46:08.789Z,19.20
2018-05-09T22:48:36.900Z,19.20
2018-05-09T22:51:05.014Z,19.10
2018-05-09T22:53:35.233Z,19.10
2018-05-09T22:56:05.304Z,19.10
2018-05-09T22:58:33.391Z,19.00
2018-05-09T23:01:02.486Z,18.90
2018-05-09T23:03:32.472Z,18.90
2018-05-09T23:06:01.211Z,18.80
2018-05-09T23:08:29.366Z,18.80
2018-05-09T23:10:59.380Z,18.80
2018-05-09T23:13:28.452Z,18.70
2018-05-09T23:15:56.527Z,18.70
2018-05-09T23:18:27.321Z,18.60
2018-05-09T23:20:55.406Z,18.60
2018-05-09T23:23:23.511Z,18.50
2018-05-09T23:25:51.612Z,18.40
2018-05-09T23:28:19.718Z,18.40
2018-05-09T23:30:49.787Z,18.30
2018-05-09T23:33:23.363Z,18.30
2018-05-09T23:35:51.487Z,18.20
2018-05-09T23:38:19.576Z,18.20
2018-05-09T23:40:47.683Z,18.20
2018-05-09T23:43:16.539Z,18.10
2018-05-09T23:45:47.342Z,18.10
2018-05-09T23:48:16.469Z,18.10
2018-05-09T23:50:55.029Z,18.10
2018-05-09T23:53:23.891Z,18.10
2018-05-09T23:55:54.072Z,18.10
2018-05-09T23:58:27.927Z,18.10
